Time;durP1;ratioP1;P1;durP2;ratioP2;P2;SDS_P1;SDS_P2;PMS_P1;PMS_P2;Temp;Humidity;BMP_temperature;BMP_pressure;BME280_temperature;BME280_humidity;BME280_pressure;Samples;Min_cycle;Max_cycle;Signal;HPM_P1;HPM_P2
2022/08/31 00:06:15;;;;;;;3.17;1.30;;;17.00;99.90;;;;;;5093175;28;19916;-63
2022/08/31 00:08:40;;;;;;;1.38;1.10;;;17.10;99.90;;;;;;5092947;28;20052;-61
2022/08/31 00:11:09;;;;;;;4.13;1.08;;;17.10;99.90;;;;;;5075216;28;20609;-62
2022/08/31 00:13:36;;;;;;;2.05;1.17;;;17.10;99.90;;;;;;5092586;28;20131;-62
2022/08/31 00:16:02;;;;;;;1.88;1.20;;;17.10;99.90;;;;;;5092535;28;20036;-62
2022/08/31 00:18:28;;;;;;;1.77;1.00;;;17.00;99.90;;;;;;5092776;28;20078;-62
2022/08/31 00:20:53;;;;;;;2.30;1.10;;;17.00;99.90;;;;;;5093329;28;20067;-61
2022/08/31 00:23:20;;;;;;;1.67;0.90;;;17.00;99.90;;;;;;5092832;28;20134;-61
2022/08/31 00:25:47;;;;;;;4.07;1.35;;;17.00;99.90;;;;;;5092162;28;20109;-62
2022/08/31 00:28:15;;;;;;;2.42;1.00;;;16.90;99.90;;;;;;5092337;28;20044;-61
2022/08/31 00:30:41;;;;;;;2.60;1.48;;;16.90;99.90;;;;;;5092674;28;20338;-61
2022/08/31 00:33:07;;;;;;;2.78;1.23;;;16.90;99.90;;;;;;5093754;28;20711;-61
2022/08/31 00:35:35;;;;;;;4.32;1.20;;;16.80;99.90;;;;;;5096550;28;20119;-61
2022/08/31 00:38:02;;;;;;;1.80;1.23;;;16.80;99.90;;;;;;5096221;28;20028;-61
2022/08/31 00:40:28;;;;;;;1.63;1.25;;;16.70;99.90;;;;;;5096796;28;20040;-61
2022/08/31 00:42:54;;;;;;;2.35;1.25;;;16.70;99.90;;;;;;5096285;28;20040;-62
2022/08/31 00:45:21;;;;;;;2.90;1.15;;;16.60;99.90;;;;;;5099770;28;20051;-61
2022/08/31 00:47:47;;;;;;;1.95;1.23;;;16.60;99.90;;;;;;5095907;28;20048;-61
2022/08/31 00:50:15;;;;;;;2.92;1.33;;;16.60;99.90;;;;;;5095954;28;20405;-61
2022/08/31 00:52:46;;;;;;;2.80;1.17;;;16.60;99.90;;;;;;5095937;28;20390;-61
2022/08/31 00:55:16;;;;;;;1.70;1.10;;;16.60;99.90;;;;;;5096394;28;20114;-61
2022/08/31 00:57:46;;;;;;;2.42;1.30;;;16.60;99.90;;;;;;5096306;28;20050;-61
2022/08/31 01:00:15;;;;;;;2.05;1.25;;;16.60;99.90;;;;;;5096319;28;20037;-61
2022/08/31 01:02:41;;;;;;;2.05;1.05;;;16.60;99.90;;;;;;5095904;28;20346;-61
2022/08/31 01:05:08;;;;;;;1.33;1.02;;;16.60;99.90;;;;;;5096112;28;20135;-61
2022/08/31 01:07:35;;;;;;;1.40;1.00;;;16.50;99.90;;;;;;5095417;28;20067;-62
2022/08/31 01:10:01;;;;;;;1.25;0.82;;;16.50;99.90;;;;;;5095255;28;20058;-61
2022/08/31 01:12:27;;;;;;;1.42;1.10;;;16.50;99.90;;;;;;5095758;28;20127;-61
2022/08/31 01:14:54;;;;;;;5.05;1.30;;;16.50;99.90;;;;;;5095160;28;20044;-62
2022/08/31 01:17:21;;;;;;;1.30;0.90;;;16.40;99.90;;;;;;5094780;28;20111;-62
2022/08/31 01:20:19;;;;;;;2.67;1.23;;;16.40;99.90;;;;;;5095618;28;20111;-61
2022/08/31 01:23:14;;;;;;;1.17;0.82;;;16.50;99.90;;;;;;5095612;28;20457;-61
2022/08/31 01:25:43;;;;;;;1.65;0.90;;;16.40;99.90;;;;;;5095774;28;20111;-61
2022/08/31 01:28:10;;;;;;;2.25;1.00;;;16.40;99.90;;;;;;5095326;28;20040;-61
2022/08/31 01:30:37;;;;;;;0.77;0.73;;;16.40;99.90;;;;;;5095681;28;20360;-63
2022/08/31 01:33:03;;;;;;;1.40;0.70;;;16.40;99.90;;;;;;5095431;28;20048;-62
2022/08/31 01:35:29;;;;;;;1.17;0.80;;;16.40;99.90;;;;;;5090627;28;20040;-61
2022/08/31 01:37:56;;;;;;;2.58;1.13;;;16.40;99.90;;;;;;5095077;28;20051;-62
2022/08/31 01:40:33;;;;;;;2.80;0.90;;;16.50;99.90;;;;;;5095122;28;20036;-61
2022/08/31 01:42:58;;;;;;;3.05;0.82;;;16.50;99.90;;;;;;5095357;28;20042;-62
2022/08/31 01:45:24;;;;;;;1.42;0.85;;;16.40;99.90;;;;;;5075699;28;20036;-61
2022/08/31 01:47:49;;;;;;;1.00;0.80;;;16.40;99.90;;;;;;5094737;28;20035;-62
2022/08/31 01:50:15;;;;;;;1.40;0.70;;;16.40;99.90;;;;;;5095240;28;20043;-62
2022/08/31 01:52:41;;;;;;;0.82;0.80;;;16.40;99.90;;;;;;5095003;28;20043;-61
2022/08/31 01:55:07;;;;;;;0.90;0.80;;;16.40;99.90;;;;;;5095234;28;20097;-61
2022/08/31 01:57:33;;;;;;;1.05;0.77;;;16.40;99.90;;;;;;5094365;28;20369;-61
2022/08/31 02:00:05;;;;;;;1.83;0.80;;;16.40;99.90;;;;;;5095169;28;20042;-62
2022/08/31 02:02:30;;;;;;;1.52;0.90;;;16.30;99.90;;;;;;5074809;28;20052;-62
2022/08/31 02:04:57;;;;;;;1.60;1.00;;;16.20;99.90;;;;;;5094934;28;20483;-61
2022/08/31 02:07:24;;;;;;;1.17;0.93;;;16.20;99.90;;;;;;5094602;28;20055;-62
2022/08/31 02:09:50;;;;;;;1.40;0.80;;;16.10;99.90;;;;;;5094391;28;20059;-61
2022/08/31 02:12:15;;;;;;;2.90;0.90;;;16.10;99.90;;;;;;5095169;28;20044;-61
2022/08/31 02:14:41;;;;;;;0.93;0.80;;;16.00;99.90;;;;;;5095047;28;20078;-61
2022/08/31 02:17:07;;;;;;;1.10;0.60;;;16.00;99.90;;;;;;5094221;28;20036;-61
2022/08/31 02:19:33;;;;;;;1.05;0.60;;;16.00;99.90;;;;;;5094840;28;20040;-61
2022/08/31 02:21:59;;;;;;;1.88;0.70;;;15.90;99.90;;;;;;5087242;28;20365;-61
2022/08/31 02:24:24;;;;;;;1.45;0.70;;;15.80;99.90;;;;;;5087640;28;20377;-62
2022/08/31 02:26:50;;;;;;;1.95;0.82;;;15.70;99.90;;;;;;5094202;28;20043;-61
2022/08/31 02:29:16;;;;;;;1.83;0.70;;;15.60;99.90;;;;;;5094635;28;20047;-62
2022/08/31 02:31:42;;;;;;;1.80;0.50;;;15.60;99.90;;;;;;5094903;28;20040;-61
2022/08/31 02:34:08;;;;;;;1.15;0.70;;;15.60;99.90;;;;;;5094586;28;20455;-63
2022/08/31 02:36:34;;;;;;;1.20;0.90;;;15.50;99.90;;;;;;5093530;28;20139;-61
2022/08/31 02:39:00;;;;;;;1.52;0.80;;;15.50;99.90;;;;;;5076408;28;20099;-61
2022/08/31 02:41:25;;;;;;;1.00;0.80;;;15.50;99.90;;;;;;5094529;28;20036;-64
2022/08/31 02:43:51;;;;;;;1.02;0.80;;;15.40;99.90;;;;;;5094030;28;20381;-61
2022/08/31 02:46:17;;;;;;;1.67;0.77;;;15.40;99.90;;;;;;5092956;28;20067;-62
2022/08/31 02:48:43;;;;;;;1.25;0.93;;;15.30;99.90;;;;;;5094326;28;20108;-62
2022/08/31 02:51:09;;;;;;;1.50;0.90;;;15.30;99.90;;;;;;5094052;28;20028;-62
2022/08/31 02:53:37;;;;;;;0.70;0.60;;;15.30;99.90;;;;;;5094258;28;20056;-61
2022/08/31 02:56:04;;;;;;;2.55;1.33;;;15.30;99.90;;;;;;5093535;28;20064;-62
2022/08/31 02:58:29;;;;;;;1.13;0.90;;;15.30;99.90;;;;;;5094092;28;20177;-61
2022/08/31 03:00:56;;;;;;;1.40;0.88;;;15.20;99.90;;;;;;5093710;28;20115;-61
2022/08/31 03:03:21;;;;;;;2.65;1.10;;;15.10;99.90;;;;;;5093604;28;20382;-61
2022/08/31 03:05:48;;;;;;;0.80;0.80;;;15.20;99.90;;;;;;5076204;28;20039;-61
2022/08/31 03:08:14;;;;;;;1.00;0.90;;;15.10;99.90;;;;;;5093172;28;20119;-61
2022/08/31 03:10:39;;;;;;;1.42;0.70;;;15.10;99.90;;;;;;5093712;28;20071;-61
2022/08/31 03:13:05;;;;;;;0.90;0.77;;;15.00;99.90;;;;;;5093616;28;20051;-60
2022/08/31 03:15:31;;;;;;;1.25;0.70;;;15.00;99.90;;;;;;5093621;28;20028;-62
2022/08/31 03:17:57;;;;;;;1.60;1.00;;;15.00;99.90;;;;;;5093143;28;20508;-62
2022/08/31 03:20:25;;;;;;;1.13;0.70;;;14.90;99.90;;;;;;5093882;28;20244;-61
2022/08/31 03:22:51;;;;;;;1.50;1.00;;;14.90;99.90;;;;;;5093594;28;20043;-61
2022/08/31 03:25:17;;;;;;;0.70;0.52;;;14.90;99.90;;;;;;5089727;28;20059;-62
2022/08/31 03:27:44;;;;;;;1.83;0.75;;;14.80;99.90;;;;;;5093571;28;20067;-61
2022/08/31 03:30:14;;;;;;;1.58;0.82;;;14.90;99.90;;;;;;5093524;28;20094;-61
2022/08/31 03:32:40;;;;;;;1.75;0.77;;;14.80;99.90;;;;;;5093510;28;20040;-61
2022/08/31 03:35:07;;;;;;;0.90;0.82;;;14.70;99.90;;;;;;5093749;28;20045;-62
2022/08/31 03:37:33;;;;;;;1.75;0.90;;;14.70;99.90;;;;;;5079029;28;20063;-62
2022/08/31 03:39:59;;;;;;;0.77;0.70;;;14.70;99.90;;;;;;5075715;28;20040;-61
2022/08/31 03:42:25;;;;;;;1.70;0.70;;;14.60;99.90;;;;;;5092920;28;20453;-61
2022/08/31 03:44:51;;;;;;;0.88;0.82;;;14.60;99.90;;;;;;5093213;28;20044;-61
2022/08/31 03:47:16;;;;;;;0.75;0.47;;;14.50;99.90;;;;;;5093017;28;20047;-61
2022/08/31 03:49:43;;;;;;;1.45;0.90;;;14.50;99.90;;;;;;5093340;28;20115;-62
2022/08/31 03:52:08;;;;;;;0.70;0.60;;;14.40;99.90;;;;;;5092579;28;20461;-62
2022/08/31 03:54:34;;;;;;;1.05;0.73;;;14.40;99.90;;;;;;5092858;28;20119;-61
2022/08/31 03:57:00;;;;;;;0.65;0.65;;;14.40;99.90;;;;;;5071208;28;20037;-62
2022/08/31 03:59:26;;;;;;;1.48;1.00;;;14.30;99.90;;;;;;5106438;28;20032;-62
2022/08/31 04:01:52;;;;;;;1.15;0.70;;;14.30;99.90;;;;;;5092780;28;20043;-61
2022/08/31 04:04:17;;;;;;;0.90;0.73;;;14.20;99.90;;;;;;5074328;28;20032;-63
2022/08/31 04:06:44;;;;;;;1.27;0.93;;;14.20;99.90;;;;;;5092328;28;20126;-62
2022/08/31 04:09:11;;;;;;;2.40;1.00;;;14.10;99.90;;;;;;5088890;28;20048;-62
2022/08/31 04:11:41;;;;;;;0.80;0.68;;;14.10;99.90;;;;;;5095635;28;20435;-63
2022/08/31 04:14:07;;;;;;;1.05;0.80;;;14.10;99.90;;;;;;5096657;28;20170;-63
2022/08/31 04:16:33;;;;;;;1.17;0.98;;;14.10;99.90;;;;;;5096374;28;20115;-62
2022/08/31 04:18:59;;;;;;;0.70;0.70;;;13.90;99.90;;;;;;5078232;28;20480;-61
2022/08/31 04:21:29;;;;;;;3.28;1.10;;;13.80;99.90;;;;;;5096691;28;20035;-61
2022/08/31 04:23:55;;;;;;;2.85;1.10;;;13.90;99.90;;;;;;5077834;28;20036;-62
2022/08/31 04:26:27;;;;;;;2.30;1.10;;;13.90;99.90;;;;;;5096151;28;20035;-63
2022/08/31 04:28:53;;;;;;;6.03;1.40;;;13.80;99.90;;;;;;5095742;28;20040;-61
2022/08/31 04:31:20;;;;;;;0.93;0.85;;;13.90;99.90;;;;;;5096020;28;20054;-62
2022/08/31 04:33:47;;;;;;;1.65;0.82;;;13.80;99.90;;;;;;5077865;28;20051;-61
2022/08/31 04:36:19;;;;;;;1.67;1.10;;;13.70;99.90;;;;;;5077627;28;20450;-61
2022/08/31 04:38:48;;;;;;;1.70;0.90;;;13.70;99.90;;;;;;5078014;28;20101;-63
2022/08/31 04:41:18;;;;;;;1.45;0.90;;;13.60;99.90;;;;;;5078178;28;20093;-61
2022/08/31 04:43:50;;;;;;;1.50;0.80;;;13.60;99.90;;;;;;5095613;28;20048;-62
2022/08/31 04:46:17;;;;;;;2.50;1.00;;;13.50;99.90;;;;;;5095508;28;20039;-62
2022/08/31 04:48:43;;;;;;;1.27;1.10;;;13.60;99.90;;;;;;5095041;28;20039;-62
2022/08/31 04:51:12;;;;;;;2.40;0.80;;;13.60;99.90;;;;;;5095026;28;20036;-62
2022/08/31 04:53:39;;;;;;;3.05;1.13;;;13.50;99.90;;;;;;5094538;28;20032;-61
2022/08/31 04:56:17;;;;;;;1.45;0.90;;;13.60;99.90;;;;;;5094289;28;20460;-62
2022/08/31 04:58:45;;;;;;;2.13;1.08;;;13.60;99.90;;;;;;5111067;28;20124;-61
2022/08/31 05:01:12;;;;;;;1.98;1.00;;;13.50;99.90;;;;;;5094712;28;20028;-62
2022/08/31 05:03:39;;;;;;;1.77;1.10;;;13.50;99.90;;;;;;5094869;28;20517;-61
2022/08/31 05:06:10;;;;;;;2.78;0.90;;;13.40;99.90;;;;;;5094938;28;20050;-63
2022/08/31 05:08:36;;;;;;;1.65;0.85;;;13.40;99.90;;;;;;5094442;28;20362;-62
2022/08/31 05:11:10;;;;;;;1.20;1.00;;;13.50;99.90;;;;;;5094495;28;20441;-62
2022/08/31 05:13:36;;;;;;;1.52;1.20;;;13.50;99.90;;;;;;5093889;28;20040;-62
2022/08/31 05:16:04;;;;;;;1.10;1.00;;;13.50;99.90;;;;;;5076587;28;20055;-62
2022/08/31 05:18:30;;;;;;;3.35;1.30;;;13.40;99.90;;;;;;5088677;28;20037;-62
2022/08/31 05:20:56;;;;;;;2.13;1.10;;;13.40;99.90;;;;;;5101001;28;20036;-62
2022/08/31 05:23:22;;;;;;;3.95;1.10;;;13.30;99.90;;;;;;5094914;28;20129;-62
2022/08/31 05:25:47;;;;;;;1.48;1.17;;;13.30;99.90;;;;;;5095167;28;20074;-63
2022/08/31 05:28:13;;;;;;;5.35;1.17;;;13.40;99.90;;;;;;5094537;28;20047;-61
2022/08/31 05:30:43;;;;;;;2.97;1.55;;;13.40;99.90;;;;;;5095067;28;20035;-62
2022/08/31 05:33:09;;;;;;;2.35;1.40;;;13.40;99.90;;;;;;5095456;28;20089;-62
2022/08/31 05:35:35;;;;;;;4.00;2.10;;;13.40;99.90;;;;;;5094462;28;20330;-63
2022/08/31 05:38:00;;;;;;;3.17;1.40;;;13.40;99.90;;;;;;5093672;28;20036;-62
2022/08/31 05:40:26;;;;;;;3.25;1.13;;;13.40;99.90;;;;;;5094348;28;20365;-62
2022/08/31 05:42:52;;;;;;;1.88;1.10;;;13.40;99.90;;;;;;5076230;28;20490;-62
2022/08/31 05:45:18;;;;;;;1.15;0.93;;;13.50;99.90;;;;;;5075453;28;20032;-63
2022/08/31 05:47:43;;;;;;;4.10;1.30;;;13.50;99.90;;;;;;5092530;28;20135;-63
2022/08/31 05:50:10;;;;;;;5.85;1.20;;;13.90;99.90;;;;;;5094411;28;20044;-63
2022/08/31 05:52:35;;;;;;;1.77;1.17;;;14.60;99.90;;;;;;5093929;28;20050;-63
2022/08/31 05:55:01;;;;;;;2.72;1.20;;;15.40;99.90;;;;;;5093990;28;20404;-63
2022/08/31 05:57:27;;;;;;;1.42;1.10;;;16.10;99.90;;;;;;5092949;28;20448;-63
2022/08/31 05:59:52;;;;;;;3.42;1.13;;;16.70;99.90;;;;;;5094041;28;20062;-63
2022/08/31 06:02:18;;;;;;;2.53;1.00;;;17.10;99.90;;;;;;5075520;28;20051;-62
2022/08/31 06:04:44;;;;;;;1.55;1.17;;;17.50;99.90;;;;;;5093350;28;20101;-65
2022/08/31 06:07:10;;;;;;;1.63;1.27;;;17.60;99.90;;;;;;5057490;28;20567;-65
2022/08/31 06:09:38;;;;;;;2.22;1.13;;;17.90;99.90;;;;;;5093194;28;20070;-62
2022/08/31 06:12:04;;;;;;;2.22;1.00;;;18.30;99.90;;;;;;5092280;28;20044;-64
2022/08/31 06:14:31;;;;;;;3.72;1.25;;;18.40;99.90;;;;;;5093846;28;20051;-63
2022/08/31 06:16:58;;;;;;;4.63;1.30;;;18.50;99.90;;;;;;5092696;28;20520;-63
2022/08/31 06:19:24;;;;;;;4.10;1.67;;;18.60;99.90;;;;;;5087771;28;20036;-63
2022/08/31 06:21:50;;;;;;;2.45;1.40;;;18.80;99.90;;;;;;5093534;28;20032;-63
2022/08/31 06:24:17;;;;;;;4.80;1.20;;;19.00;99.90;;;;;;5093322;28;20361;-62
2022/08/31 06:26:44;;;;;;;1.67;1.20;;;19.10;99.90;;;;;;5069662;28;20101;-62
2022/08/31 06:29:10;;;;;;;1.67;1.30;;;19.20;99.90;;;;;;5092327;28;20135;-64
2022/08/31 06:31:45;;;;;;;6.10;1.90;;;19.20;99.90;;;;;;5092558;28;20151;-64
2022/08/31 06:34:12;;;;;;;5.03;1.30;;;19.30;99.80;;;;;;5093108;28;20047;-64
2022/08/31 06:36:38;;;;;;;2.17;1.13;;;19.40;99.70;;;;;;5092928;28;20042;-64
2022/08/31 06:39:04;;;;;;;3.50;1.30;;;19.50;99.70;;;;;;5092736;28;20036;-64
2022/08/31 06:41:33;;;;;;;1.88;1.20;;;19.50;99.70;;;;;;5093254;28;20491;-64
2022/08/31 06:44:02;;;;;;;3.42;1.23;;;19.50;99.90;;;;;;5093201;28;20071;-62
2022/08/31 06:46:30;;;;;;;1.98;1.20;;;19.80;99.50;;;;;;5092555;28;20352;-62
2022/08/31 06:48:56;;;;;;;2.03;1.13;;;19.80;99.50;;;;;;5092625;28;20043;-63
2022/08/31 06:51:23;;;;;;;2.38;1.30;;;19.90;99.40;;;;;;5075322;28;20081;-61
2022/08/31 06:53:49;;;;;;;2.33;1.30;;;19.90;99.40;;;;;;5092830;28;20071;-61
2022/08/31 06:56:19;;;;;;;3.08;1.10;;;19.60;99.80;;;;;;5092680;28;20413;-61
2022/08/31 06:58:45;;;;;;;4.70;1.70;;;19.50;99.90;;;;;;5092683;28;20036;-61
2022/08/31 07:01:14;;;;;;;4.78;1.67;;;19.40;99.90;;;;;;5092866;28;20062;-62
2022/08/31 07:03:42;;;;;;;3.30;1.58;;;19.40;99.90;;;;;;5093113;28;20036;-62
2022/08/31 07:06:20;;;;;;;4.93;1.52;;;19.40;99.90;;;;;;5092002;28;20111;-64
2022/08/31 07:08:50;;;;;;;4.95;1.65;;;19.40;99.90;;;;;;5091478;28;20044;-62
2022/08/31 07:11:31;;;;;;;5.65;1.40;;;19.10;99.90;;;;;;5092408;28;20048;-62
2022/08/31 07:13:56;;;;;;;3.40;1.20;;;19.10;99.90;;;;;;5092800;28;20086;-62
2022/08/31 07:16:25;;;;;;;2.58;1.23;;;18.90;99.90;;;;;;5074266;28;20032;-62
2022/08/31 07:18:53;;;;;;;3.80;1.30;;;18.90;99.90;;;;;;5091119;28;20418;-61
2022/08/31 07:21:29;;;;;;;3.92;1.40;;;18.70;99.90;;;;;;5092214;28;20078;-62
2022/08/31 07:23:57;;;;;;;1.98;1.30;;;18.60;99.90;;;;;;5073998;28;20069;-62
2022/08/31 07:26:27;;;;;;;4.65;1.50;;;18.50;99.90;;;;;;5091457;28;20068;-62
2022/08/31 07:28:57;;;;;;;2.78;1.40;;;18.30;99.90;;;;;;5091852;28;20042;-62
2022/08/31 07:31:26;;;;;;;2.78;1.52;;;18.30;99.90;;;;;;5074537;28;20113;-62
2022/08/31 07:33:55;;;;;;;3.03;1.35;;;18.30;99.90;;;;;;5091863;28;20036;-62
2022/08/31 07:36:23;;;;;;;3.55;1.45;;;18.30;99.90;;;;;;5091923;28;20059;-62
2022/08/31 07:44:20;;;;;;;5.03;1.50;;;18.50;99.90;;;;;;5091535;28;20040;-62
2022/08/31 07:46:46;;;;;;;4.30;1.73;;;18.60;99.90;;;;;;5073986;28;20097;-61
2022/08/31 07:49:13;;;;;;;4.20;1.48;;;18.60;99.90;;;;;;5091712;28;20032;-62
2022/08/31 07:51:45;;;;;;;6.20;1.30;;;18.60;99.90;;;;;;5074189;28;20046;-62
2022/08/31 07:54:12;;;;;;;2.60;1.20;;;18.60;99.90;;;;;;5090727;28;20147;-62
2022/08/31 07:56:41;;;;;;;2.17;1.40;;;18.60;99.90;;;;;;5073818;28;20048;-62
2022/08/31 07:59:08;;;;;;;3.47;1.30;;;18.80;99.90;;;;;;5073724;28;20048;-61
2022/08/31 08:01:36;;;;;;;4.63;1.40;;;18.80;99.90;;;;;;5091880;28;20097;-62
2022/08/31 08:04:02;;;;;;;4.13;1.35;;;18.80;99.90;;;;;;5092057;28;20042;-62
2022/08/31 08:06:28;;;;;;;5.07;1.30;;;18.80;99.90;;;;;;5091274;28;20449;-62
2022/08/31 08:09:02;;;;;;;3.65;1.20;;;18.90;99.90;;;;;;5091018;28;20502;-62
2022/08/31 08:11:27;;;;;;;1.33;1.00;;;18.80;99.90;;;;;;5092067;28;20115;-62
2022/08/31 08:13:54;;;;;;;1.80;1.30;;;18.80;99.90;;;;;;5073820;28;20536;-62
2022/08/31 08:16:20;;;;;;;3.22;1.27;;;18.90;99.90;;;;;;5091534;28;20075;-63
2022/08/31 08:18:45;;;;;;;1.50;1.17;;;18.80;99.90;;;;;;5091532;28;20094;-62
2022/08/31 08:21:12;;;;;;;1.15;0.73;;;18.90;99.90;;;;;;5091773;28;20377;-63
2022/08/31 08:23:38;;;;;;;2.30;1.10;;;19.00;99.90;;;;;;5091761;28;20047;-63
2022/08/31 08:26:10;;;;;;;3.95;1.10;;;19.00;99.70;;;;;;5091455;28;20327;-63
2022/08/31 08:28:36;;;;;;;3.97;1.38;;;19.00;99.90;;;;;;5091524;28;20036;-62
2022/08/31 08:31:01;;;;;;;5.38;1.17;;;19.10;99.90;;;;;;5091782;28;20497;-61
2022/08/31 08:33:30;;;;;;;1.92;0.88;;;19.10;99.90;;;;;;5091821;28;20473;-62
2022/08/31 08:36:02;;;;;;;2.05;1.17;;;19.20;99.80;;;;;;5077193;28;20144;-62
2022/08/31 08:38:29;;;;;;;2.85;1.35;;;19.40;99.40;;;;;;5084217;28;20054;-62
2022/08/31 08:40:58;;;;;;;1.48;0.70;;;19.40;99.30;;;;;;5091628;28;20039;-61
2022/08/31 08:43:33;;;;;;;3.72;1.52;;;19.50;99.40;;;;;;5091704;28;20044;-61
2022/08/31 08:46:02;;;;;;;2.95;1.10;;;19.50;99.10;;;;;;5073249;28;20433;-61
2022/08/31 08:48:32;;;;;;;1.85;0.88;;;19.70;99.20;;;;;;5091514;28;20052;-61
2022/08/31 08:51:00;;;;;;;3.08;1.00;;;19.90;98.80;;;;;;5091423;28;20043;-62
2022/08/31 08:53:29;;;;;;;1.50;0.75;;;19.80;98.60;;;;;;5073447;28;20042;-61
2022/08/31 08:55:55;;;;;;;3.70;0.98;;;19.90;98.40;;;;;;5094883;28;20032;-62
2022/08/31 08:58:23;;;;;;;10.13;1.00;;;19.80;98.40;;;;;;5095053;28;20040;-62
2022/08/31 09:00:52;;;;;;;2.42;1.10;;;19.80;98.90;;;;;;5095539;28;20067;-61
2022/08/31 09:03:41;;;;;;;2.25;0.90;;;19.90;98.30;;;;;;5094884;28;20473;-61
2022/08/31 09:06:15;;;;;;;2.45;0.80;;;19.90;98.50;;;;;;5094654;28;20627;-61
2022/08/31 09:09:09;;;;;;;3.22;0.95;;;20.00;98.50;;;;;;5094795;28;20040;-62
2022/08/31 09:11:48;;;;;;;2.03;1.08;;;20.00;98.50;;;;;;5093882;28;20040;-61
2022/08/31 09:14:48;;;;;;;2.25;0.95;;;20.00;98.70;;;;;;5094824;28;20404;-60
2022/08/31 09:17:17;;;;;;;3.75;1.30;;;20.00;98.70;;;;;;5094315;28;20036;-61
2022/08/31 09:20:02;;;;;;;2.92;1.00;;;20.10;98.50;;;;;;5093286;28;20043;-60
2022/08/31 09:22:47;;;;;;;1.95;1.08;;;20.10;98.60;;;;;;5094040;28;20039;-61
2022/08/31 09:25:17;;;;;;;3.70;0.90;;;20.30;98.70;;;;;;5093782;28;20036;-61
2022/08/31 09:27:58;;;;;;;1.92;1.10;;;20.30;98.40;;;;;;5076616;28;20125;-61
2022/08/31 09:30:42;;;;;;;2.08;1.00;;;20.50;98.20;;;;;;5094659;28;20055;-61
2022/08/31 09:33:18;;;;;;;6.93;1.05;;;20.50;98.00;;;;;;5076607;28;20067;-61
2022/08/31 09:35:44;;;;;;;5.10;1.38;;;20.50;98.10;;;;;;5094362;28;20027;-61
2022/08/31 09:38:37;;;;;;;4.03;1.15;;;20.60;98.10;;;;;;5094211;28;20036;-61
2022/08/31 09:41:07;;;;;;;5.32;1.30;;;20.60;98.00;;;;;;5062466;28;20048;-61
2022/08/31 09:43:36;;;;;;;2.83;1.20;;;20.80;98.00;;;;;;5094301;28;20105;-61
2022/08/31 09:46:25;;;;;;;3.30;1.00;;;20.90;98.10;;;;;;5109682;28;20517;-62
2022/08/31 09:48:57;;;;;;;3.35;0.80;;;21.00;97.20;;;;;;5093817;28;20044;-62
2022/08/31 09:51:31;;;;;;;2.40;1.30;;;21.00;96.80;;;;;;5076628;28;20036;-62
2022/08/31 09:57:41;;;;;;;2.90;1.10;;;21.20;96.50;;;;;;5044162;28;20135;-61
2022/08/31 10:00:14;;;;;;;4.85;1.00;;;21.30;96.80;;;;;;5094213;28;20450;-62
2022/08/31 10:02:41;;;;;;;2.45;0.88;;;21.40;96.80;;;;;;5094161;28;20044;-61
2022/08/31 10:05:39;;;;;;;4.28;1.27;;;21.50;95.70;;;;;;5093359;28;20131;-61
2022/08/31 10:08:58;;;;;;;4.00;1.20;;;21.50;95.90;;;;;;5090923;28;20539;-61
2022/08/31 10:11:31;;;;;;;1.65;0.90;;;21.50;95.80;;;;;;5010876;28;20571;-62
2022/08/31 10:14:04;;;;;;;1.83;1.00;;;21.50;95.50;;;;;;5081764;28;20052;-63
2022/08/31 10:17:04;;;;;;;2.85;1.00;;;21.50;95.70;;;;;;5075235;28;20426;-60
2022/08/31 10:19:45;;;;;;;1.30;0.70;;;21.50;95.40;;;;;;5074927;28;20051;-61
2022/08/31 10:22:49;;;;;;;3.65;1.10;;;21.50;94.80;;;;;;5093255;28;20040;-63
2022/08/31 10:25:34;;;;;;;4.30;1.00;;;21.50;94.80;;;;;;5060971;28;20044;-62
2022/08/31 10:28:11;;;;;;;3.63;1.10;;;21.50;95.10;;;;;;5092381;28;20062;-61
2022/08/31 10:30:58;;;;;;;1.65;0.80;;;21.50;95.30;;;;;;5108577;28;20436;-61
2022/08/31 10:36:38;;;;;;;5.97;1.48;;;21.60;95.50;;;;;;5092820;28;20046;-61
2022/08/31 10:39:27;;;;;;;1.52;0.80;;;21.90;95.20;;;;;;5092584;28;20062;-62
2022/08/31 10:41:53;;;;;;;1.38;0.70;;;22.00;94.90;;;;;;5093068;28;20043;-62
2022/08/31 10:44:31;;;;;;;5.07;1.20;;;22.30;94.30;;;;;;5093264;28;20047;-62
2022/08/31 10:47:01;;;;;;;2.10;1.00;;;22.30;94.20;;;;;;5092514;28;20046;-62
2022/08/31 10:49:27;;;;;;;4.40;1.02;;;22.30;94.20;;;;;;5092313;28;20032;-62
2022/08/31 10:52:08;;;;;;;5.85;1.60;;;22.20;94.30;;;;;;5092535;28;20051;-62
2022/08/31 10:54:46;;;;;;;4.35;1.13;;;22.30;94.50;;;;;;5092577;28;20036;-62
2022/08/31 10:57:28;;;;;;;4.57;1.08;;;22.40;93.90;;;;;;5092051;28;20040;-63
2022/08/31 11:00:40;;;;;;;3.60;1.50;;;22.40;93.50;;;;;;5073076;28;20494;-62
2022/08/31 11:03:05;;;;;;;5.28;1.20;;;22.40;93.90;;;;;;5091867;28;20173;-62
2022/08/31 11:05:43;;;;;;;1.40;0.90;;;22.50;94.30;;;;;;5108416;28;20779;-62
2022/08/31 11:08:32;;;;;;;2.17;0.90;;;22.60;94.10;;;;;;5091375;28;20036;-61
2022/08/31 11:10:58;;;;;;;2.55;0.90;;;22.80;93.50;;;;;;5091934;28;20438;-62
2022/08/31 11:13:42;;;;;;;1.55;0.88;;;22.70;93.20;;;;;;5091894;28;20036;-62
2022/08/31 11:16:31;;;;;;;2.47;0.95;;;22.60;93.40;;;;;;5091317;28;20495;-61
2022/08/31 11:19:06;;;;;;;1.33;1.23;;;22.80;93.00;;;;;;5063949;28;20461;-61
2022/08/31 11:21:41;;;;;;;2.80;0.90;;;22.60;93.50;;;;;;5092443;28;20111;-62
2022/08/31 11:24:27;;;;;;;2.35;0.65;;;22.70;93.90;;;;;;5092336;28;20523;-62
2022/08/31 11:26:52;;;;;;;2.08;1.10;;;22.80;92.80;;;;;;5091867;28;20055;-61
2022/08/31 11:29:33;;;;;;;2.05;1.00;;;22.80;92.80;;;;;;5091890;28;20051;-61
2022/08/31 11:32:13;;;;;;;4.28;1.05;;;22.90;92.50;;;;;;5092491;28;20112;-62
2022/08/31 11:34:49;;;;;;;1.27;0.80;;;22.90;92.70;;;;;;5092558;28;20036;-62
2022/08/31 11:37:59;;;;;;;3.38;1.17;;;22.90;92.30;;;;;;5067020;28;20073;-62
2022/08/31 11:41:02;;;;;;;4.32;0.90;;;23.00;92.50;;;;;;5005252;28;20092;-61
2022/08/31 11:43:30;;;;;;;4.63;1.02;;;23.00;91.40;;;;;;5010222;28;20052;-62
2022/08/31 11:46:22;;;;;;;2.15;0.90;;;23.10;91.20;;;;;;5073256;28;20043;-62
2022/08/31 11:48:52;;;;;;;2.08;1.10;;;23.20;91.90;;;;;;5091520;28;20047;-61
2022/08/31 11:51:41;;;;;;;2.47;0.93;;;23.20;91.10;;;;;;5073945;28;20124;-62
2022/08/31 11:54:28;;;;;;;2.08;0.70;;;23.10;91.30;;;;;;5080802;28;20500;-62
2022/08/31 11:56:57;;;;;;;2.60;0.80;;;23.10;91.80;;;;;;5091954;28;20063;-62
2022/08/31 11:59:27;;;;;;;3.40;0.90;;;23.10;92.00;;;;;;5091418;28;20460;-62
2022/08/31 12:01:55;;;;;;;1.73;0.85;;;23.10;92.20;;;;;;5092137;28;20051;-63
2022/08/31 12:04:42;;;;;;;5.38;0.80;;;23.30;91.70;;;;;;5074200;28;20040;-62
2022/08/31 12:07:34;;;;;;;3.38;0.85;;;23.40;91.10;;;;;;5091694;28;20102;-62
2022/08/31 12:10:06;;;;;;;6.65;1.17;;;23.20;91.60;;;;;;5077698;28;20127;-62
2022/08/31 12:13:02;;;;;;;3.60;1.10;;;23.30;91.70;;;;;;5073856;28;20052;-62
2022/08/31 12:15:36;;;;;;;3.97;1.17;;;23.50;92.20;;;;;;5073659;28;20044;-64
2022/08/31 12:18:37;;;;;;;2.28;0.85;;;23.70;91.60;;;;;;5090616;28;20032;-64
2022/08/31 12:24:30;;;;;;;3.60;1.00;;;23.70;90.80;;;;;;5092024;28;20040;-64
2022/08/31 12:27:25;;;;;;;2.45;0.98;;;23.70;91.10;;;;;;5087159;28;20527;-62
2022/08/31 12:30:06;;;;;;;2.25;0.80;;;23.70;90.90;;;;;;5086206;28;20044;-63
2022/08/31 12:32:39;;;;;;;3.28;1.10;;;23.70;91.00;;;;;;5081526;28;20044;-63
2022/08/31 12:35:27;;;;;;;1.02;0.82;;;23.50;91.00;;;;;;5094653;28;20040;-62
2022/08/31 12:37:57;;;;;;;1.77;0.90;;;23.40;91.20;;;;;;5090254;28;20415;-63
2022/08/31 12:40:24;;;;;;;2.10;0.80;;;23.50;91.10;;;;;;5095633;28;20033;-64
2022/08/31 12:42:55;;;;;;;1.58;0.80;;;23.60;90.30;;;;;;5095441;28;20329;-63
2022/08/31 12:45:59;;;;;;;0.90;0.73;;;23.70;90.50;;;;;;5076956;28;20054;-62
2022/08/31 12:48:43;;;;;;;1.42;0.82;;;23.70;89.50;;;;;;5095240;28;20040;-62
2022/08/31 12:51:31;;;;;;;2.63;0.95;;;23.80;89.40;;;;;;5077414;28;20357;-62
2022/08/31 12:54:05;;;;;;;1.00;0.90;;;23.70;89.70;;;;;;5095149;28;20040;-62
2022/08/31 12:56:39;;;;;;;1.98;0.95;;;23.70;89.30;;;;;;5095233;28;20032;-63
2022/08/31 12:59:16;;;;;;;2.55;1.02;;;23.80;88.90;;;;;;5094670;28;20040;-62
2022/08/31 13:01:46;;;;;;;4.80;1.10;;;23.90;87.80;;;;;;5100421;28;20032;-62
2022/08/31 13:04:14;;;;;;;1.35;0.77;;;23.90;88.00;;;;;;5103893;28;20043;-61
2022/08/31 13:06:43;;;;;;;2.33;1.00;;;23.90;87.90;;;;;;5101751;28;20028;-61
2022/08/31 13:09:26;;;;;;;3.25;0.90;;;23.90;87.80;;;;;;5086202;28;20048;-62
2022/08/31 13:11:54;;;;;;;2.97;0.80;;;23.90;88.90;;;;;;5095490;28;20346;-61
2022/08/31 13:14:25;;;;;;;2.00;1.15;;;23.90;88.50;;;;;;5094825;28;20048;-62
2022/08/31 13:17:09;;;;;;;2.97;1.30;;;23.90;87.60;;;;;;5094824;28;20047;-61
2022/08/31 13:19:35;;;;;;;;;;;23.90;88.10;;;;;;5094999;28;20051;-61
2022/08/31 13:22:15;;;;;;;2.00;0.95;;;23.80;88.40;;;;;;5094755;28;19916;-64
2022/08/31 13:24:45;;;;;;;2.15;0.93;;;24.00;87.20;;;;;;5076884;28;20044;-62
2022/08/31 13:27:18;;;;;;;3.95;0.93;;;24.00;87.10;;;;;;5094601;28;20031;-63
2022/08/31 13:29:45;;;;;;;4.50;1.10;;;24.00;87.60;;;;;;5085766;28;20592;-63